Terminal Aerodrome Forecast
Issued by NWS

Current Version | Previous Version | Graphics & Text | Print | Product List | Glossary On
Versions: 1 2 3 4 5 6 7 8 9 10 11 12 13 14 15 16 17 18 19 20 21 22 23 24 25 26 27 28 29
186
FTUS41 KILN 261013 AAB
TAFLCK
TAF AMD
KLCK 261013Z 2610/2706 16004KT P6SM SKC
     FM261200 26008KT P6SM VCSH SCT050 BKN120
     FM261500 27014G22KT P6SM -SHRA SCT025 BKN035
      TEMPO 2615/2618 4SM -SHRA BKN025
     FM261800 29012G20KT P6SM BKN025
     FM262000 28012G18KT P6SM SKC
     FM270100 25005KT P6SM SKC=

USA.gov is the U.S. government's official web portal to all federal, state and local government web resources and services.